sensor_id;sensor_type;location;lat;lon;timestamp;temperature;humidity
21348;DHT22;66030;53.582;9.746;2023-02-03T11:18:28;8.40;99.90
21348;DHT22;66030;53.582;9.746;2023-02-03T11:20:58;8.60;99.90
21348;DHT22;66030;53.582;9.746;2023-02-03T11:23:26;8.70;99.90
21348;DHT22;66030;53.582;9.746;2023-02-03T11:25:54;8.90;99.90
21348;DHT22;66030;53.582;9.746;2023-02-03T11:28:24;9.00;99.90
21348;DHT22;66030;53.582;9.746;2023-02-03T11:30:54;9.10;99.90
21348;DHT22;66030;53.582;9.746;2023-02-03T11:33:25;9.20;99.90
21348;DHT22;66030;53.582;9.746;2023-02-03T11:35:58;9.20;99.90
21348;DHT22;66030;53.582;9.746;2023-02-03T11:38:29;9.20;99.90
21348;DHT22;66030;53.582;9.746;2023-02-03T11:41:00;9.30;99.90
21348;DHT22;66030;53.582;9.746;2023-02-03T11:43:29;9.30;99.90
21348;DHT22;66030;53.582;9.746;2023-02-03T11:46:00;9.30;99.90
21348;DHT22;66030;53.582;9.746;2023-02-03T11:48:31;9.30;99.90
21348;DHT22;66030;53.582;9.746;2023-02-03T11:51:12;9.30;99.90
21348;DHT22;66030;53.582;9.746;2023-02-03T11:53:57;9.20;99.90
21348;DHT22;66030;53.582;9.746;2023-02-03T11:56:40;9.30;99.90
21348;DHT22;66030;53.582;9.746;2023-02-03T11:59:34;9.30;99.90
21348;DHT22;66030;53.582;9.746;2023-02-03T12:02:30;9.40;99.90
21348;DHT22;66030;53.582;9.746;2023-02-03T12:05:20;9.40;99.90
21348;DHT22;66030;53.582;9.746;2023-02-03T12:08:03;9.50;99.90
21348;DHT22;66030;53.582;9.746;2023-02-03T12:10:42;9.60;99.90
21348;DHT22;66030;53.582;9.746;2023-02-03T12:13:22;9.70;99.90
21348;DHT22;66030;53.582;9.746;2023-02-03T12:16:03;9.70;99.90
21348;DHT22;66030;53.582;9.746;2023-02-03T12:18:47;9.70;99.90
21348;DHT22;66030;53.582;9.746;2023-02-03T12:21:32;9.70;99.90
21348;DHT22;66030;53.582;9.746;2023-02-03T12:24:08;9.70;99.90
21348;DHT22;66030;53.582;9.746;2023-02-03T12:26:46;9.60;99.90
21348;DHT22;66030;53.582;9.746;2023-02-03T12:29:20;9.60;99.90
21348;DHT22;66030;53.582;9.746;2023-02-03T12:31:53;9.50;99.90
21348;DHT22;66030;53.582;9.746;2023-02-03T12:34:28;9.40;99.90
21348;DHT22;66030;53.582;9.746;2023-02-03T12:37:01;9.40;99.90
21348;DHT22;66030;53.582;9.746;2023-02-03T12:39:35;9.30;99.90
21348;DHT22;66030;53.582;9.746;2023-02-03T12:42:12;9.40;99.90
21348;DHT22;66030;53.582;9.746;2023-02-03T12:44:46;9.30;99.90
21348;DHT22;66030;53.582;9.746;2023-02-03T12:47:21;9.30;99.90
21348;DHT22;66030;53.582;9.746;2023-02-03T12:49:54;9.30;99.90
21348;DHT22;66030;53.582;9.746;2023-02-03T12:52:26;9.30;99.90
21348;DHT22;66030;53.582;9.746;2023-02-03T12:55:02;9.20;99.90
21348;DHT22;66030;53.582;9.746;2023-02-03T12:57:36;9.20;99.90
21348;DHT22;66030;53.582;9.746;2023-02-03T13:00:15;9.20;99.90
21348;DHT22;66030;53.582;9.746;2023-02-03T13:02:55;9.10;99.90
21348;DHT22;66030;53.582;9.746;2023-02-03T13:05:35;9.10;99.90
21348;DHT22;66030;53.582;9.746;2023-02-03T13:08:13;9.20;99.90
21348;DHT22;66030;53.582;9.746;2023-02-03T13:10:47;9.20;99.90
21348;DHT22;66030;53.582;9.746;2023-02-03T13:13:22;9.30;99.90
21348;DHT22;66030;53.582;9.746;2023-02-03T13:15:53;9.20;99.90
21348;DHT22;66030;53.582;9.746;2023-02-03T13:18:25;9.20;99.90
21348;DHT22;66030;53.582;9.746;2023-02-03T13:20:55;9.20;99.90
21348;DHT22;66030;53.582;9.746;2023-02-03T13:23:24;9.30;99.90
21348;DHT22;66030;53.582;9.746;2023-02-03T13:26:14;9.20;99.90
21348;DHT22;66030;53.582;9.746;2023-02-03T13:29:01;9.20;99.90
21348;DHT22;66030;53.582;9.746;2023-02-03T13:31:41;9.20;99.90
21348;DHT22;66030;53.582;9.746;2023-02-03T13:34:28;9.20;99.90
21348;DHT22;66030;53.582;9.746;2023-02-03T13:37:13;9.10;99.90
21348;DHT22;66030;53.582;9.746;2023-02-03T13:39:52;9.10;99.90
21348;DHT22;66030;53.582;9.746;2023-02-03T13:42:26;9.10;99.90
21348;DHT22;66030;53.582;9.746;2023-02-03T13:44:57;9.10;99.90
21348;DHT22;66030;53.582;9.746;2023-02-03T13:47:28;9.10;99.90
21348;DHT22;66030;53.582;9.746;2023-02-03T13:49:59;9.10;99.90
21348;DHT22;66030;53.582;9.746;2023-02-03T13:52:33;9.10;99.90
21348;DHT22;66030;53.582;9.746;2023-02-03T13:55:02;9.10;99.90
21348;DHT22;66030;53.582;9.746;2023-02-03T13:57:34;9.00;99.90
21348;DHT22;66030;53.582;9.746;2023-02-03T14:00:05;9.00;99.90
21348;DHT22;66030;53.582;9.746;2023-02-03T14:02:44;9.00;99.90
21348;DHT22;66030;53.582;9.746;2023-02-03T14:05:41;8.90;99.90
21348;DHT22;66030;53.582;9.746;2023-02-03T14:11:40;8.80;99.90
21348;DHT22;66030;53.582;9.746;2023-02-03T14:14:42;8.80;99.90
21348;DHT22;66030;53.582;9.746;2023-02-03T14:17:52;8.80;99.90
21348;DHT22;66030;53.582;9.746;2023-02-03T14:20:37;8.80;99.90
21348;DHT22;66030;53.582;9.746;2023-02-03T14:23:09;8.80;99.90
21348;DHT22;66030;53.582;9.746;2023-02-03T14:25:41;8.70;99.90
21348;DHT22;66030;53.582;9.746;2023-02-03T14:28:12;8.70;99.90
21348;DHT22;66030;53.582;9.746;2023-02-03T14:34:07;8.70;99.90
21348;DHT22;66030;53.582;9.746;2023-02-03T14:36:49;8.70;99.90
21348;DHT22;66030;53.582;9.746;2023-02-03T14:39:41;8.70;99.90
21348;DHT22;66030;53.582;9.746;2023-02-03T14:42:35;8.70;99.90
21348;DHT22;66030;53.582;9.746;2023-02-03T14:45:20;8.70;99.90
21348;DHT22;66030;53.582;9.746;2023-02-03T14:48:03;8.60;99.90
21348;DHT22;66030;53.582;9.746;2023-02-03T14:50:46;8.70;99.90
21348;DHT22;66030;53.582;9.746;2023-02-03T14:53:27;8.70;99.90
21348;DHT22;66030;53.582;9.746;2023-02-03T14:56:11;8.70;99.90
21348;DHT22;66030;53.582;9.746;2023-02-03T14:58:43;8.70;99.90
21348;DHT22;66030;53.582;9.746;2023-02-03T15:01:25;8.70;99.90
21348;DHT22;66030;53.582;9.746;2023-02-03T15:04:20;8.60;99.90
21348;DHT22;66030;53.582;9.746;2023-02-03T15:06:51;8.70;99.90
21348;DHT22;66030;53.582;9.746;2023-02-03T15:09:28;8.70;99.90
21348;DHT22;66030;53.582;9.746;2023-02-03T15:11:57;8.60;99.90
21348;DHT22;66030;53.582;9.746;2023-02-03T15:14:27;8.70;99.90
21348;DHT22;66030;53.582;9.746;2023-02-03T15:16:58;8.60;99.90
21348;DHT22;66030;53.582;9.746;2023-02-03T15:19:30;8.60;99.90
21348;DHT22;66030;53.582;9.746;2023-02-03T15:22:00;8.60;99.90
21348;DHT22;66030;53.582;9.746;2023-02-03T15:24:33;8.60;99.90
21348;DHT22;66030;53.582;9.746;2023-02-03T15:27:02;8.60;99.90
21348;DHT22;66030;53.582;9.746;2023-02-03T15:29:32;8.60;99.90
21348;DHT22;66030;53.582;9.746;2023-02-03T15:32:04;8.60;99.90
21348;DHT22;66030;53.582;9.746;2023-02-03T15:34:37;8.70;99.90
21348;DHT22;66030;53.582;9.746;2023-02-03T15:37:12;8.60;99.90
21348;DHT22;66030;53.582;9.746;2023-02-03T15:39:46;8.60;99.90
21348;DHT22;66030;53.582;9.746;2023-02-03T15:42:21;8.60;99.90
21348;DHT22;66030;53.582;9.746;2023-02-03T15:44:55;8.60;99.90
21348;DHT22;66030;53.582;9.746;2023-02-03T15:47:29;8.50;99.90
21348;DHT22;66030;53.582;9.746;2023-02-03T15:50:05;8.50;99.90
21348;DHT22;66030;53.582;9.746;2023-02-03T15:52:39;8.50;99.90
21348;DHT22;66030;53.582;9.746;2023-02-03T15:55:15;8.50;99.90
21348;DHT22;66030;53.582;9.746;2023-02-03T15:57:48;8.50;99.90
21348;DHT22;66030;53.582;9.746;2023-02-03T16:00:29;8.50;99.90
21348;DHT22;66030;53.582;9.746;2023-02-03T16:02:59;8.50;99.90
21348;DHT22;66030;53.582;9.746;2023-02-03T16:05:30;8.50;99.90
21348;DHT22;66030;53.582;9.746;2023-02-03T16:08:35;8.50;99.90
21348;DHT22;66030;53.582;9.746;2023-02-03T16:11:25;8.50;99.90
21348;DHT22;66030;53.582;9.746;2023-02-03T16:13:54;8.50;99.90
21348;DHT22;66030;53.582;9.746;2023-02-03T16:16:24;8.50;99.90
21348;DHT22;66030;53.582;9.746;2023-02-03T16:18:55;8.50;99.90
21348;DHT22;66030;53.582;9.746;2023-02-03T16:21:29;8.50;99.90
21348;DHT22;66030;53.582;9.746;2023-02-03T16:23:59;8.40;99.90
21348;DHT22;66030;53.582;9.746;2023-02-03T16:26:28;8.40;99.90
21348;DHT22;66030;53.582;9.746;2023-02-03T16:29:11;8.40;99.90
21348;DHT22;66030;53.582;9.746;2023-02-03T16:31:57;8.40;99.90
21348;DHT22;66030;53.582;9.746;2023-02-03T16:34:43;8.50;99.90
21348;DHT22;66030;53.582;9.746;2023-02-03T16:37:30;8.40;99.90
21348;DHT22;66030;53.582;9.746;2023-02-03T16:40:20;8.40;99.90
21348;DHT22;66030;53.582;9.746;2023-02-03T16:43:10;8.40;99.90
21348;DHT22;66030;53.582;9.746;2023-02-03T16:45:57;8.50;99.90
21348;DHT22;66030;53.582;9.746;2023-02-03T16:48:42;8.50;99.90
21348;DHT22;66030;53.582;9.746;2023-02-03T16:51:37;8.40;99.90
21348;DHT22;66030;53.582;9.746;2023-02-03T16:54:06;8.40;99.90
21348;DHT22;66030;53.582;9.746;2023-02-03T16:56:37;8.30;99.90
21348;DHT22;66030;53.582;9.746;2023-02-03T16:59:05;8.30;99.90
21348;DHT22;66030;53.582;9.746;2023-02-03T17:01:33;8.20;99.90
21348;DHT22;66030;53.582;9.746;2023-02-03T17:04:01;8.20;99.90
21348;DHT22;66030;53.582;9.746;2023-02-03T17:06:29;8.30;99.90
21348;DHT22;66030;53.582;9.746;2023-02-03T17:08:58;8.20;99.90
21348;DHT22;66030;53.582;9.746;2023-02-03T17:11:26;8.30;99.90
21348;DHT22;66030;53.582;9.746;2023-02-03T17:13:56;8.20;99.90
21348;DHT22;66030;53.582;9.746;2023-02-03T17:16:25;8.30;99.90
21348;DHT22;66030;53.582;9.746;2023-02-03T17:18:54;8.30;99.90
21348;DHT22;66030;53.582;9.746;2023-02-03T17:21:23;8.20;99.90
21348;DHT22;66030;53.582;9.746;2023-02-03T17:23:52;8.30;99.90
21348;DHT22;66030;53.582;9.746;2023-02-03T17:26:20;8.30;99.90
21348;DHT22;66030;53.582;9.746;2023-02-03T17:28:48;8.30;99.90
21348;DHT22;66030;53.582;9.746;2023-02-03T17:31:18;8.30;99.90
21348;DHT22;66030;53.582;9.746;2023-02-03T17:33:49;8.30;99.90
21348;DHT22;66030;53.582;9.746;2023-02-03T17:36:18;8.30;99.90
21348;DHT22;66030;53.582;9.746;2023-02-03T17:38:48;8.40;99.90
21348;DHT22;66030;53.582;9.746;2023-02-03T17:41:34;8.40;99.90
21348;DHT22;66030;53.582;9.746;2023-02-03T17:44:20;8.30;99.90
21348;DHT22;66030;53.582;9.746;2023-02-03T17:47:07;8.30;99.90
21348;DHT22;66030;53.582;9.746;2023-02-03T17:49:53;8.20;99.90
21348;DHT22;66030;53.582;9.746;2023-02-03T17:52:38;8.10;99.90
21348;DHT22;66030;53.582;9.746;2023-02-03T17:55:24;8.00;99.90
21348;DHT22;66030;53.582;9.746;2023-02-03T17:57:52;7.90;99.90
21348;DHT22;66030;53.582;9.746;2023-02-03T18:00:20;7.80;99.90
21348;DHT22;66030;53.582;9.746;2023-02-03T18:02:50;7.80;99.90
21348;DHT22;66030;53.582;9.746;2023-02-03T18:05:18;7.70;99.90
21348;DHT22;66030;53.582;9.746;2023-02-03T18:07:46;7.60;99.90
21348;DHT22;66030;53.582;9.746;2023-02-03T18:10:18;7.50;99.90
21348;DHT22;66030;53.582;9.746;2023-02-03T18:12:46;7.50;99.90
21348;DHT22;66030;53.582;9.746;2023-02-03T18:15:14;7.50;99.90
21348;DHT22;66030;53.582;9.746;2023-02-03T18:17:42;7.50;99.90
21348;DHT22;66030;53.582;9.746;2023-02-03T18:20:12;7.50;99.90
21348;DHT22;66030;53.582;9.746;2023-02-03T18:22:40;7.40;99.90
21348;DHT22;66030;53.582;9.746;2023-02-03T18:25:10;7.40;99.90
21348;DHT22;66030;53.582;9.746;2023-02-03T18:27:38;7.40;99.90
21348;DHT22;66030;53.582;9.746;2023-02-03T18:30:07;7.40;99.90
21348;DHT22;66030;53.582;9.746;2023-02-03T18:32:37;7.40;99.90
21348;DHT22;66030;53.582;9.746;2023-02-03T18:35:05;7.40;99.90
21348;DHT22;66030;53.582;9.746;2023-02-03T18:37:39;7.40;99.90
21348;DHT22;66030;53.582;9.746;2023-02-03T18:40:08;7.40;99.90
21348;DHT22;66030;53.582;9.746;2023-02-03T18:42:36;7.40;99.90
21348;DHT22;66030;53.582;9.746;2023-02-03T18:45:04;7.40;99.90
21348;DHT22;66030;53.582;9.746;2023-02-03T18:47:32;7.40;99.90
21348;DHT22;66030;53.582;9.746;2023-02-03T18:50:00;7.40;99.90
21348;DHT22;66030;53.582;9.746;2023-02-03T18:52:28;7.50;99.90
21348;DHT22;66030;53.582;9.746;2023-02-03T18:54:57;7.50;99.90
21348;DHT22;66030;53.582;9.746;2023-02-03T18:57:25;7.50;99.90
21348;DHT22;66030;53.582;9.746;2023-02-03T18:59:53;7.60;99.90
21348;DHT22;66030;53.582;9.746;2023-02-03T19:02:21;7.50;99.90
21348;DHT22;66030;53.582;9.746;2023-02-03T19:04:51;7.50;99.90
21348;DHT22;66030;53.582;9.746;2023-02-03T19:07:19;7.50;99.90
21348;DHT22;66030;53.582;9.746;2023-02-03T19:09:47;7.50;99.90
21348;DHT22;66030;53.582;9.746;2023-02-03T19:12:16;7.60;99.90
21348;DHT22;66030;53.582;9.746;2023-02-03T19:14:44;7.50;99.90
21348;DHT22;66030;53.582;9.746;2023-02-03T19:17:12;7.50;99.90
21348;DHT22;66030;53.582;9.746;2023-02-03T19:19:40;7.60;99.90
21348;DHT22;66030;53.582;9.746;2023-02-03T19:22:07;7.50;99.90
21348;DHT22;66030;53.582;9.746;2023-02-03T19:24:35;7.50;99.90
21348;DHT22;66030;53.582;9.746;2023-02-03T19:27:03;7.50;99.90
21348;DHT22;66030;53.582;9.746;2023-02-03T19:29:32;7.50;99.90
21348;DHT22;66030;53.582;9.746;2023-02-03T19:32:00;7.50;99.90
21348;DHT22;66030;53.582;9.746;2023-02-03T19:34:28;7.50;99.90
21348;DHT22;66030;53.582;9.746;2023-02-03T19:36:56;7.50;99.90
21348;DHT22;66030;53.582;9.746;2023-02-03T19:39:24;7.50;99.90
21348;DHT22;66030;53.582;9.746;2023-02-03T19:41:57;7.50;99.90
21348;DHT22;66030;53.582;9.746;2023-02-03T19:44:25;7.50;99.90
21348;DHT22;66030;53.582;9.746;2023-02-03T19:46:54;7.50;99.90
21348;DHT22;66030;53.582;9.746;2023-02-03T19:49:22;7.60;99.90
21348;DHT22;66030;53.582;9.746;2023-02-03T19:51:51;7.60;99.90
21348;DHT22;66030;53.582;9.746;2023-02-03T19:54:18;7.70;99.90
21348;DHT22;66030;53.582;9.746;2023-02-03T19:56:46;7.70;99.90
21348;DHT22;66030;53.582;9.746;2023-02-03T19:59:14;7.60;99.90
21348;DHT22;66030;53.582;9.746;2023-02-03T20:01:42;7.70;99.90
21348;DHT22;66030;53.582;9.746;2023-02-03T20:04:11;7.60;99.90
21348;DHT22;66030;53.582;9.746;2023-02-03T20:06:39;7.60;99.90
21348;DHT22;66030;53.582;9.746;2023-02-03T20:09:06;7.60;99.90
21348;DHT22;66030;53.582;9.746;2023-02-03T20:11:34;7.60;99.90
21348;DHT22;66030;53.582;9.746;2023-02-03T20:14:02;7.60;99.90
21348;DHT22;66030;53.582;9.746;2023-02-03T20:16:30;7.60;99.90
21348;DHT22;66030;53.582;9.746;2023-02-03T20:18:58;7.60;99.90
21348;DHT22;66030;53.582;9.746;2023-02-03T20:21:28;7.60;99.90
21348;DHT22;66030;53.582;9.746;2023-02-03T20:23:56;7.50;99.90
21348;DHT22;66030;53.582;9.746;2023-02-03T20:26:23;7.50;99.90
21348;DHT22;66030;53.582;9.746;2023-02-03T20:28:51;7.50;99.90
21348;DHT22;66030;53.582;9.746;2023-02-03T20:31:22;7.40;99.90
21348;DHT22;66030;53.582;9.746;2023-02-03T20:33:50;7.50;99.90
21348;DHT22;66030;53.582;9.746;2023-02-03T20:36:18;7.50;99.90
21348;DHT22;66030;53.582;9.746;2023-02-03T20:38:48;7.50;99.90
21348;DHT22;66030;53.582;9.746;2023-02-03T20:41:17;7.50;99.90
21348;DHT22;66030;53.582;9.746;2023-02-03T20:43:45;7.50;99.90
21348;DHT22;66030;53.582;9.746;2023-02-03T20:46:14;7.50;99.90
21348;DHT22;66030;53.582;9.746;2023-02-03T20:48:42;7.50;99.90
21348;DHT22;66030;53.582;9.746;2023-02-03T20:51:10;7.50;99.90
21348;DHT22;66030;53.582;9.746;2023-02-03T20:53:39;7.50;99.90
21348;DHT22;66030;53.582;9.746;2023-02-03T20:56:12;7.50;99.90
21348;DHT22;66030;53.582;9.746;2023-02-03T20:58:41;7.50;99.90
21348;DHT22;66030;53.582;9.746;2023-02-03T21:01:14;7.40;99.90
21348;DHT22;66030;53.582;9.746;2023-02-03T21:03:42;7.40;99.90
21348;DHT22;66030;53.582;9.746;2023-02-03T21:06:32;7.40;99.90
21348;DHT22;66030;53.582;9.746;2023-02-03T21:09:06;7.30;99.90
21348;DHT22;66030;53.582;9.746;2023-02-03T21:11:38;7.30;99.90
21348;DHT22;66030;53.582;9.746;2023-02-03T21:14:16;7.30;99.90
21348;DHT22;66030;53.582;9.746;2023-02-03T21:16:44;7.20;99.90
21348;DHT22;66030;53.582;9.746;2023-02-03T21:19:21;7.00;99.90
21348;DHT22;66030;53.582;9.746;2023-02-03T21:21:51;7.00;99.90
21348;DHT22;66030;53.582;9.746;2023-02-03T21:24:24;7.00;99.90
21348;DHT22;66030;53.582;9.746;2023-02-03T21:26:55;7.00;99.90
21348;DHT22;66030;53.582;9.746;2023-02-03T21:29:25;7.00;99.90
21348;DHT22;66030;53.582;9.746;2023-02-03T21:31:53;7.00;99.90
21348;DHT22;66030;53.582;9.746;2023-02-03T21:34:25;6.90;99.90
21348;DHT22;66030;53.582;9.746;2023-02-03T21:36:54;6.90;99.90
21348;DHT22;66030;53.582;9.746;2023-02-03T21:39:25;6.90;99.90
21348;DHT22;66030;53.582;9.746;2023-02-03T21:41:55;6.90;99.90
21348;DHT22;66030;53.582;9.746;2023-02-03T21:44:30;6.80;99.90
21348;DHT22;66030;53.582;9.746;2023-02-03T21:47:02;6.80;99.90
21348;DHT22;66030;53.582;9.746;2023-02-03T21:49:31;6.80;99.90
21348;DHT22;66030;53.582;9.746;2023-02-03T21:52:00;6.70;99.90
21348;DHT22;66030;53.582;9.746;2023-02-03T21:54:30;6.80;99.90
21348;DHT22;66030;53.582;9.746;2023-02-03T21:57:00;6.90;99.90
21348;DHT22;66030;53.582;9.746;2023-02-03T21:59:36;6.80;99.90
21348;DHT22;66030;53.582;9.746;2023-02-03T22:02:38;6.80;99.90
21348;DHT22;66030;53.582;9.746;2023-02-03T22:05:14;6.80;99.90
21348;DHT22;66030;53.582;9.746;2023-02-03T22:07:42;6.90;99.90
21348;DHT22;66030;53.582;9.746;2023-02-03T22:10:10;6.90;99.90
21348;DHT22;66030;53.582;9.746;2023-02-03T22:12:39;6.90;99.90
21348;DHT22;66030;53.582;9.746;2023-02-03T22:15:08;6.80;99.90
21348;DHT22;66030;53.582;9.746;2023-02-03T22:17:36;6.70;99.90
21348;DHT22;66030;53.582;9.746;2023-02-03T22:20:04;6.70;99.90
21348;DHT22;66030;53.582;9.746;2023-02-03T22:22:32;6.80;99.90
21348;DHT22;66030;53.582;9.746;2023-02-03T22:25:00;6.70;99.90
21348;DHT22;66030;53.582;9.746;2023-02-03T22:27:28;6.80;99.90
21348;DHT22;66030;53.582;9.746;2023-02-03T22:29:58;6.80;99.90
21348;DHT22;66030;53.582;9.746;2023-02-03T22:32:28;6.80;99.90
21348;DHT22;66030;53.582;9.746;2023-02-03T22:34:56;6.80;99.90
21348;DHT22;66030;53.582;9.746;2023-02-03T22:37:25;6.80;99.90
21348;DHT22;66030;53.582;9.746;2023-02-03T22:39:54;6.70;99.90
21348;DHT22;66030;53.582;9.746;2023-02-03T22:42:21;6.70;99.90
21348;DHT22;66030;53.582;9.746;2023-02-03T22:44:49;6.60;99.90
21348;DHT22;66030;53.582;9.746;2023-02-03T22:47:18;6.40;99.90
21348;DHT22;66030;53.582;9.746;2023-02-03T22:49:47;6.40;99.90
21348;DHT22;66030;53.582;9.746;2023-02-03T22:52:15;6.30;99.90
21348;DHT22;66030;53.582;9.746;2023-02-03T22:54:43;6.20;99.90
21348;DHT22;66030;53.582;9.746;2023-02-03T22:57:10;6.30;99.90
21348;DHT22;66030;53.582;9.746;2023-02-03T22:59:38;6.20;99.90
21348;DHT22;66030;53.582;9.746;2023-02-03T23:02:06;6.10;99.90
21348;DHT22;66030;53.582;9.746;2023-02-03T23:04:35;6.10;99.90
21348;DHT22;66030;53.582;9.746;2023-02-03T23:07:03;5.90;99.90
21348;DHT22;66030;53.582;9.746;2023-02-03T23:09:31;5.90;99.90
21348;DHT22;66030;53.582;9.746;2023-02-03T23:11:58;6.00;99.90
21348;DHT22;66030;53.582;9.746;2023-02-03T23:14:26;6.00;99.90
21348;DHT22;66030;53.582;9.746;2023-02-03T23:16:54;5.90;99.90
21348;DHT22;66030;53.582;9.746;2023-02-03T23:19:22;5.80;99.90
21348;DHT22;66030;53.582;9.746;2023-02-03T23:21:51;5.70;99.90
21348;DHT22;66030;53.582;9.746;2023-02-03T23:24:19;5.60;99.90
21348;DHT22;66030;53.582;9.746;2023-02-03T23:26:47;5.60;99.90
21348;DHT22;66030;53.582;9.746;2023-02-03T23:29:15;5.60;99.90
21348;DHT22;66030;53.582;9.746;2023-02-03T23:31:42;5.60;99.90
21348;DHT22;66030;53.582;9.746;2023-02-03T23:34:10;5.50;99.90
21348;DHT22;66030;53.582;9.746;2023-02-03T23:36:57;5.40;99.90
21348;DHT22;66030;53.582;9.746;2023-02-03T23:39:27;5.20;99.90
21348;DHT22;66030;53.582;9.746;2023-02-03T23:41:55;5.20;99.90
21348;DHT22;66030;53.582;9.746;2023-02-03T23:44:23;5.30;99.90
21348;DHT22;66030;53.582;9.746;2023-02-03T23:46:51;5.40;99.90
21348;DHT22;66030;53.582;9.746;2023-02-03T23:49:19;5.40;99.90
21348;DHT22;66030;53.582;9.746;2023-02-03T23:51:47;5.40;99.90
21348;DHT22;66030;53.582;9.746;2023-02-03T23:54:16;5.30;99.90
21348;DHT22;66030;53.582;9.746;2023-02-03T23:56:44;5.20;99.90
21348;DHT22;66030;53.582;9.746;2023-02-03T23:59:11;5.10;99.90
